Louise S — WDE9035 — position and weather

sailwx.info

Track history (hours):
 
Tides and Currents Weather Stations Pressure Air Temp Water Temp Dewpoint Dewpoint Depression Visibility Wind Speed Wind Dir Waves Ship Positions

Louise S

Owner: CAMPBELL TRANSPORTATION COMPANY, CHARLEROI, PA. More information available from US FCC via Universal Licensing System and Coast Guard Vessel Documentation Center.

Last reported at 2013-Dec-24 11:03 UTC. Time now 2014-Oct-02 16:42 UTC.
Position N 39°06' W 084°33'.
Warning: this ship's position is months out of date.

Length 45 m.

Type: Tow > 200 m length. MMSI: 367412620.

Date/timePositionNaut miles runAvg speedWind from/ knotsBaromVisibWave heightAir tempDewpointWater temp
2013-Dec-24 11:03N 39°06' W 084°33'0 0.0
2013-Dec-24 10:33N 39°06' W 084°33'1 0.7
2013-Dec-24 09:33N 39°05' W 084°33'0 0.0
2013-Dec-24 08:33N 39°05' W 084°33'0 0.0
2013-Dec-24 07:33N 39°05' W 084°33'0 0.0
2013-Dec-24 06:33N 39°05' W 084°33'1 1.4
2013-Dec-24 05:33N 39°05' W 084°35'4 4.2
2013-Dec-24 04:33N 39°06' W 084°40'1 0.9
2013-Dec-24 03:33N 39°06' W 084°41'0 0.0
2013-Dec-24 02:33N 39°06' W 084°41'0 0.1
2013-Dec-24 01:32N 39°06' W 084°41'0 0.0
2013-Dec-24 00:31N 39°06' W 084°41'0 0.3
2013-Dec-23 23:32N 39°06' W 084°41'0 0.0
2013-Dec-23 22:33N 39°06' W 084°41'4 3.7
2013-Dec-23 21:28N 39°08' W 084°46'  
Track history (hours):
 
Tides and Currents Weather Stations Pressure Air Temp Water Temp Dewpoint Dewpoint Depression Visibility Wind Speed Wind Dir Waves Ship Positions

Louise S

Owner: CAMPBELL TRANSPORTATION COMPANY, CHARLEROI, PA. More information available from US FCC via Universal Licensing System and Coast Guard Vessel Documentation Center.

Last reported at 2013-Dec-24 11:03 UTC. Time now 2014-Oct-02 16:42 UTC.
Position N 39°06' W 084°33'.
Warning: this ship's position is months out of date.

Length 45 m.

Type: Tow > 200 m length. MMSI: 367412620.

Date/timePositionNaut miles runAvg speedWind from/ knotsBaromVisibWave heightAir tempDewpointWater temp
2013-Dec-24 11:03N 39°06' W 084°33'0 0.0
2013-Dec-24 10:33N 39°06' W 084°33'1 0.7
2013-Dec-24 09:33N 39°05' W 084°33'0 0.0
2013-Dec-24 08:33N 39°05' W 084°33'0 0.0
2013-Dec-24 07:33N 39°05' W 084°33'0 0.0
2013-Dec-24 06:33N 39°05' W 084°33'1 1.4
2013-Dec-24 05:33N 39°05' W 084°35'4 4.2
2013-Dec-24 04:33N 39°06' W 084°40'1 0.9
2013-Dec-24 03:33N 39°06' W 084°41'0 0.0
2013-Dec-24 02:33N 39°06' W 084°41'0 0.1
2013-Dec-24 01:32N 39°06' W 084°41'0 0.0
2013-Dec-24 00:31N 39°06' W 084°41'0 0.3
2013-Dec-23 23:32N 39°06' W 084°41'0 0.0
2013-Dec-23 22:33N 39°06' W 084°41'4 3.7
2013-Dec-23 21:28N 39°08' W 084°46'  

Dump ship's entire track history